Date,TemperatureHighF,TemperatureAvgF,TemperatureLowF,DewpointHighF,DewpointAvgF,DewpointLowF,HumidityHigh,HumidityAvg,HumidityLow,PressureMaxIn,PressureMinIn,WindSpeedMaxMPH,WindSpeedAvgMPH,GustSpeedMaxMPH,PrecipitationSumIn
2012-1-1,48.0,39.6,29.8,26.7,23.6,20.7,71,55,38,30.09,29.69,8,4,12,0.00
2012-1-2,37.8,27.2,19.9,9.8,8.0,5.6,63,48,28,30.10,29.99,2,1,2,0.00
2012-1-3,52.7,36.5,19.9,27.8,20.0,9.4,68,53,37,29.98,29.53,18,9,21,0.00
2012-1-4,58.3,40.8,28.0,30.7,25.8,19.7,74,58,34,29.88,29.65,8,3,11,0.04
2012-1-5,68.2,45.6,29.1,38.4,29.9,22.8,80,59,29,29.71,29.38,11,6,14,0.00
2012-1-6,59.7,48.2,32.2,30.5,24.2,18.3,74,43,26,29.64,29.31,11,4,12,0.00
2012-1-7,44.1,30.9,19.6,25.7,19.3,11.9,76,63,48,29.75,29.64,3,1,4,0.00
2012-1-8,46.8,35.9,22.8,28.1,22.6,14.7,75,60,41,29.84,29.75,6,2,8,0.00
2012-1-9,26.4,24.4,19.0,21.1,18.7,12.3,81,78,72,29.83,29.78,5,4,6,0.00
2012-1-10,32.4,26.7,26.4,23.1,21.2,21.1,80,79,67,29.79,29.26,5,5,6,0.00
2012-1-11,41.2,32.0,21.4,31.5,21.2,4.9,80,65,49,29.63,29.18,17,8,19,0.00
2012-1-12,30.7,21.3,12.4,6.9,-2.2,-9.1,61,38,21,29.65,29.57,11,4,16,0.00
2012-1-13,45.3,27.3,11.5,18.9,8.1,-6.2,57,46,35,29.66,29.49,9,3,11,0.00
2012-1-14,47.3,36.9,27.0,23.2,15.0,5.9,53,42,29,29.78,29.49,12,4,13,0.00
2012-1-15,62.4,47.9,33.6,30.1,21.7,14.4,55,39,23,29.65,29.23,21,14,23,0.00
2012-1-16,47.7,39.4,26.6,35.6,25.9,9.1,74,59,47,29.45,29.13,14,6,21,0.00
2012-1-17,27.1,19.3,9.0,10.6,4.6,-3.0,64,53,40,29.91,29.48,12,5,15,0.00
2012-1-18,40.8,27.1,9.0,17.3,10.0,-1.3,66,51,35,29.86,29.36,26,11,27,0.00
2012-1-19,34.3,21.8,13.5,17.7,5.3,-0.3,65,50,36,29.60,29.35,9,4,11,0.00
2012-1-20,32.5,19.7,13.3,12.9,5.2,-0.5,61,53,44,29.53,29.36,8,4,9,0.00
2012-2-5,45.7,36.6,26.2,33.7,25.4,20.6,85,66,45,29.98,29.86,6,2,7,0.00
2012-2-6,54.0,36.9,24.1,35.3,25.2,19.4,82,66,37,29.86,29.68,10,4,14,0.00
2012-2-7,43.5,33.9,26.8,35.0,28.2,21.8,86,80,69,30.01,29.73,8,4,10,0.01
2012-2-8,34.7,29.8,26.1,27.6,24.1,21.1,82,79,74,30.03,29.86,5,3,7,0.02
2012-2-9,41.2,36.0,32.0,31.5,29.5,26.7,84,78,68,29.86,29.61,11,6,14,0.00
2012-2-10,32.2,26.0,13.8,28.0,11.8,-2.9,86,58,33,30.07,29.61,13,7,14,0.38
2012-2-11,25.2,15.1,8.6,0.7,-3.0,-6.7,62,45,32,30.27,30.06,8,4,11,0.00
2012-2-12,29.3,24.1,8.4,19.2,7.3,-1.1,75,50,38,30.15,29.55,24,12,24,0.00
2012-2-13,34.3,31.0,24.4,31.2,26.7,19.4,89,84,75,29.54,29.23,23,9,27,0.38
2012-2-14,53.4,33.9,19.4,42.1,26.8,15.4,88,77,53,29.42,29.33,15,5,15,0.01
2012-2-15,41.7,38.0,29.7,39.9,34.9,24.6,93,88,80,29.70,29.33,10,3,10,0.01
2012-2-16,51.1,32.0,21.2,28.9,23.3,17.2,88,72,42,29.84,29.70,11,2,11,0.00
2012-2-17,59.5,44.6,28.9,39.9,32.3,22.3,82,64,47,29.70,29.57,11,5,13,0.00
2012-2-18,44.2,33.9,23.9,27.6,22.4,15.4,79,64,42,29.78,29.63,6,3,8,0.00
2012-2-19,55.2,41.1,20.3,31.8,26.8,13.7,83,60,40,29.65,29.41,16,6,17,0.00
2012-2-20,56.7,45.4,39.4,45.5,37.3,30.3,80,74,58,29.41,29.08,27,15,34,0.13
2012-2-21,59.2,42.3,29.1,32.8,24.3,19.1,71,53,27,29.50,29.27,14,6,16,0.00
2012-2-22,71.8,50.3,34.2,38.9,31.2,22.0,65,51,32,29.27,28.88,12,5,17,0.00
2012-2-23,53.6,45.0,32.2,37.8,29.1,17.0,74,56,38,29.48,28.80,17,6,20,0.00
2012-2-24,53.4,37.4,25.2,25.0,18.4,13.6,73,50,26,29.81,29.48,11,3,11,0.00
2012-2-25,58.5,40.1,21.6,28.9,17.9,10.8,70,46,25,29.83,29.25,30,12,35,0.63
2012-2-26,63.3,49.1,29.8,27.0,13.6,4.5,52,29,14,29.77,29.24,30,6,35,0.07
2012-2-27,53.4,37.8,23.4,18.6,14.8,8.0,63,42,26,29.99,29.71,9,4,13,0.00
2012-2-28,66.9,54.4,41.7,59.0,39.7,18.8,87,61,24,29.71,28.98,28,14,37,0.27
2012-2-29,63.7,46.3,28.4,31.0,21.2,10.9,62,42,22,29.41,29.21,14,5,21,0.00
2012-3-1,68.5,49.1,28.0,31.4,25.8,13.4,61,44,26,29.37,29.08,14,5,15,0.00
2012-3-2,57.9,43.6,30.7,30.4,19.6,8.4,75,45,19,29.54,29.14,11,5,55,0.00
2012-3-3,53.1,36.4,19.2,21.5,11.5,5.6,61,40,22,29.61,29.49,8,3,14,0.00
2012-3-4,70.7,51.2,29.3,33.4,23.1,10.6,53,37,24,29.76,29.44,16,6,18,0.00
2012-3-5,66.7,47.3,21.6,33.8,23.8,12.5,72,45,26,29.80,29.38,22,11,25,0.00
2012-3-6,74.1,62.7,53.6,50.1,40.6,29.0,65,47,34,29.38,29.18,30,21,34,0.92
2012-3-7,67.6,55.5,41.0,54.4,42.2,26.7,78,62,49,29.61,29.17,29,14,34,0.12
2012-3-8,54.0,39.1,25.7,28.0,20.5,11.9,76,52,23,30.05,29.62,8,4,12,0.05
2012-3-9,68.0,30.7,24.6,23.8,15.7,13.5,70,57,21,30.07,29.90,10,3,13,0.00
2012-3-11,49.8,49.8,49.8,29.0,29.0,29.0,46,46,46,29.51,29.51,6,6,6,0.00
2012-3-13,42.1,42.1,42.1,39.1,39.1,39.1,89,89,89,29.48,29.48,2,2,3,0.00
2012-3-14,61.2,61.2,61.2,59.4,59.4,59.4,94,94,94,29.35,29.35,15,15,17,0.00
2012-3-15,64.0,64.0,64.0,62.6,62.6,62.6,95,95,95,29.49,29.49,4,4,5,0.00
2012-3-16,68.5,68.5,68.5,66.1,66.1,66.1,92,92,92,29.46,29.46,10,10,15,0.00
2012-3-20,55.0,53.8,52.5,53.3,52.8,52.2,99,96,94,29.35,29.33,11,6,11,0.00
2012-3-21,57.4,53.0,48.6,57.1,52.7,48.3,99,99,99,29.29,29.27,5,4,6,0.01
2012-3-22,51.8,51.1,50.5,49.8,49.1,48.0,95,93,91,29.43,29.40,7,3,11,0.07
2012-3-23,65.7,65.7,65.7,52.8,52.8,52.8,64,64,64,29.48,29.48,2,2,4,0.00
2012-4-7,67.3,57.8,43.5,50.9,41.5,37.1,78,57,43,29.88,29.77,9,3,12,0.00
2012-4-8,72.1,52.9,34.7,46.8,39.3,31.8,92,65,36,29.92,29.70,11,4,12,0.00
2012-4-9,72.0,56.1,41.4,56.3,46.7,37.5,90,73,48,29.74,29.62,6,2,8,0.00
2012-4-10,69.3,55.4,41.2,46.6,38.8,34.0,89,58,34,29.78,29.65,9,3,9,0.00
2012-4-11,60.4,53.8,48.2,40.3,33.2,27.0,61,48,38,29.82,29.65,8,4,10,0.00
2012-4-12,63.5,57.1,51.6,57.5,46.3,31.8,90,70,48,29.65,29.29,14,9,21,0.12
2012-4-13,79.2,67.1,54.3,61.4,53.7,46.1,96,66,40,29.36,29.23,21,7,24,0.00
2012-4-14,74.8,67.1,54.0,69.4,63.3,47.2,99,88,76,29.34,28.95,29,12,30,0.21
2012-4-15,72.3,62.4,51.8,67.8,49.0,37.9,95,65,34,29.36,28.91,29,14,35,0.21
2012-4-16,68.9,55.8,44.2,51.1,43.6,37.6,82,66,46,29.76,29.37,6,2,8,0.32
2012-4-17,77.7,59.7,41.9,56.2,47.9,38.7,91,68,46,29.79,29.60,19,7,21,0.63
2012-4-18,83.3,66.6,53.4,60.7,54.1,45.9,85,66,46,29.61,29.36,13,8,17,0.43
2012-4-19,74.7,64.8,52.7,61.7,54.8,44.1,78,71,61,29.47,29.23,23,10,23,0.31
2012-4-20,65.5,53.7,43.0,46.1,40.9,34.5,78,64,42,29.65,29.47,8,4,9,0.00
2012-4-21,78.8,57.5,37.0,56.4,42.7,30.8,81,61,41,29.61,29.47,14,4,14,0.00
2012-4-22,68.9,55.3,42.4,43.9,38.1,31.3,69,55,36,29.79,29.58,8,4,10,0.00
2012-4-23,79.5,55.9,33.8,47.9,39.0,28.1,83,58,32,29.79,29.49,9,3,10,0.00
2012-4-24,96.8,71.8,48.7,64.7,53.5,41.9,80,57,32,29.48,29.09,14,7,14,0.00
2012-4-25,91.2,75.9,61.5,67.6,57.0,46.6,69,54,42,29.35,29.08,7,3,9,0.01
2012-4-26,79.9,66.7,50.0,65.4,54.4,44.9,87,67,45,29.49,29.36,9,2,10,1.50
2012-4-27,83.5,69.2,59.5,69.6,57.0,50.6,87,67,42,29.41,28.96,21,10,28,0.04
2012-4-28,72.0,60.4,47.7,57.8,52.0,45.2,91,75,57,29.53,29.27,6,3,7,0.67
2012-4-29,70.2,59.3,54.9,64.7,56.3,50.0,98,90,74,29.52,29.44,6,2,7,0.06
2012-4-30,77.9,62.7,54.9,68.3,59.9,54.0,99,91,71,29.55,29.23,17,3,18,0.28
2012-5-1,86.5,72.4,59.4,73.1,66.7,58.8,99,84,64,29.31,29.12,20,10,24,0.01
2012-5-2,89.6,77.5,66.9,74.5,70.4,64.8,94,80,62,29.26,29.13,18,10,20,0.00
2012-5-3,90.3,77.3,68.4,74.5,70.2,65.0,96,81,58,29.34,29.22,24,6,24,0.00
2012-5-4,97.5,79.0,65.1,76.4,69.4,64.4,99,77,38,29.35,29.24,18,6,21,0.00
2012-5-5,93.0,80.3,68.2,74.1,70.9,67.3,98,76,51,29.32,29.22,14,8,17,0.00
2012-5-6,78.3,72.8,63.1,74.8,67.7,57.1,99,85,72,29.53,29.23,14,6,15,0.00
2012-5-7,63.0,58.0,51.1,57.5,49.5,39.9,84,74,61,29.65,29.53,6,3,8,0.07
2012-5-8,80.8,61.5,43.9,55.1,44.0,36.6,84,58,29,29.66,29.54,8,2,12,0.00
2012-5-9,86.4,61.2,39.9,52.3,43.3,34.0,85,57,32,29.65,29.47,6,2,8,0.00
2012-5-10,93.2,72.2,54.9,59.5,50.8,44.0,75,52,28,29.47,29.32,15,8,18,0.00
2012-5-11,78.4,67.0,54.3,59.3,55.4,49.9,91,69,49,29.71,29.41,11,3,11,0.02
2012-5-12,57.6,55.2,50.2,51.7,49.8,47.9,93,83,78,29.83,29.71,5,4,8,0.12
2012-5-13,56.7,56.7,56.7,50.1,50.1,50.1,79,79,79,29.82,29.82,4,4,4,0.12
2012-5-14,56.7,56.7,56.7,50.1,50.1,50.1,79,79,79,29.82,29.82,4,4,4,0.12
2012-5-15,56.7,56.7,56.7,50.1,50.1,50.1,79,79,79,29.82,29.82,4,4,4,0.12
2012-5-16,56.7,56.7,56.7,50.1,50.1,50.1,79,79,79,29.82,29.82,4,4,4,0.12
2012-5-17,56.7,56.7,56.7,50.1,50.1,50.1,79,79,79,29.82,29.82,4,4,4,0.12
2012-5-18,95.5,66.0,56.7,57.7,51.7,50.1,79,66,28,29.82,29.20,24,7,24,0.14
2012-5-19,93.6,78.6,64.6,67.0,60.7,54.3,70,56,43,29.54,29.19,21,12,24,0.00
2012-5-20,83.1,67.0,54.1,56.3,51.0,40.4,87,61,36,29.75,29.53,5,2,14,0.00
2012-5-21,88.0,67.0,49.3,50.7,45.9,39.8,81,53,29,29.82,29.61,8,2,10,0.00
2012-5-22,92.1,74.0,57.0,57.1,49.4,42.9,62,46,32,29.62,29.23,17,9,20,0.00
2012-5-23,98.4,82.8,70.9,65.0,58.5,51.0,62,47,34,29.23,28.91,28,16,33,0.00
2012-5-24,92.8,77.6,65.1,66.1,58.6,50.9,74,55,36,29.27,28.86,14,4,21,0.28
2012-5-25,93.7,75.6,66.0,77.7,65.4,49.5,99,73,51,29.40,29.27,13,6,14,0.00
2012-5-26,98.4,85.8,76.6,75.2,71.9,68.2,84,66,46,29.38,29.29,19,12,24,0.02
2012-5-27,97.0,83.5,73.4,70.9,67.5,62.7,78,61,44,29.37,29.16,24,16,27,0.00
2012-5-28,87.4,75.3,66.4,64.4,61.1,53.0,82,64,36,29.38,29.19,17,6,20,0.00
2012-7-25,83.1,83.1,83.1,68.7,68.7,68.7,63,63,63,29.31,29.31,7,7,10,0.00
2012-8-15,61.9,61.6,60.4,61.4,60.5,59.9,99,96,95,29.44,29.42,4,2,6,0.00
2012-9-22,74.7,60.8,48.9,45.3,38.6,30.2,81,49,30,29.79,29.55,8,3,9,0.00
2012-9-23,73.4,57.7,41.7,38.4,35.5,30.5,74,48,28,29.84,29.68,9,2,10,0.00
2012-9-24,83.1,65.1,47.7,62.1,50.9,37.6,77,62,46,29.68,29.32,8,2,10,0.00
2012-9-25,80.8,68.4,57.9,65.8,60.1,54.6,91,76,60,29.40,29.31,5,2,14,0.09
2012-9-26,70.0,65.4,59.4,69.3,64.9,59.1,99,98,94,29.65,29.34,7,2,13,0.71
2012-9-27,73.9,64.4,58.1,68.7,62.3,57.8,99,94,76,29.70,29.61,4,1,6,0.01
2012-9-28,72.9,62.4,55.4,68.6,59.2,53.7,99,90,65,29.70,29.62,6,2,9,0.00
2012-9-29,73.2,61.9,52.7,61.6,55.1,52.4,99,82,52,29.69,29.56,8,1,9,0.00
2012-9-30,77.2,61.9,50.7,62.0,53.9,50.4,99,79,43,29.58,29.44,4,1,6,0.00
2012-10-1,69.1,57.5,45.7,62.0,52.8,45.1,99,85,69,29.55,29.44,9,2,9,0.01
2012-10-2,73.4,58.0,41.7,51.3,44.3,38.6,92,65,37,29.57,29.41,4,1,7,0.00
2012-10-3,81.5,63.9,45.5,62.9,48.7,39.6,87,61,40,29.45,29.33,16,7,16,0.00
2012-10-4,70.0,56.9,50.4,55.7,42.4,36.3,72,60,50,29.81,29.47,10,4,15,0.00
2012-10-5,55.0,49.0,40.8,36.9,34.5,31.7,72,59,47,29.85,29.77,7,3,9,0.00
2012-10-6,48.6,44.4,41.2,37.4,33.0,29.3,79,65,52,29.91,29.82,4,2,5,0.00
2012-10-7,58.5,41.5,27.3,39.6,30.9,23.7,90,69,47,29.88,29.65,13,3,16,0.00
2012-10-8,72.5,52.3,35.4,45.2,34.9,28.8,80,57,32,29.65,29.41,14,7,17,0.00
2012-10-9,66.0,53.4,38.5,48.1,38.5,27.6,70,58,48,29.71,29.37,13,4,13,0.00
2012-10-10,69.4,49.3,31.1,42.6,31.4,26.6,85,56,31,29.81,29.60,8,3,8,0.00
2012-10-11,81.1,63.7,49.5,59.1,45.4,30.8,61,53,47,29.69,29.48,12,5,13,0.00
2012-10-12,59.7,53.2,48.7,59.4,43.2,35.1,99,71,47,29.78,29.46,8,4,12,0.06
2012-10-13,79.9,67.2,58.1,75.3,65.8,55.8,99,96,81,29.47,29.09,14,5,14,0.37
2012-10-14,73.9,61.6,53.2,59.3,51.0,47.0,99,72,45,29.57,29.13,9,4,13,0.00
2012-10-15,82.9,63.7,46.9,58.2,50.6,43.9,93,67,41,29.54,29.29,9,3,11,0.00
2012-10-16,80.4,67.6,56.1,57.3,49.8,44.6,72,56,39,29.28,29.01,9,4,13,0.00
2012-10-17,69.8,61.0,46.2,59.3,44.6,28.3,92,60,30,29.32,28.95,11,4,16,0.02
2012-10-18,65.7,54.6,43.3,31.0,28.0,25.4,52,39,26,29.37,29.27,14,6,17,0.00
2012-10-19,64.8,52.5,41.0,38.2,30.4,24.7,67,45,34,29.44,29.34,11,3,14,0.00
2012-10-20,83.5,59.5,36.5,50.8,39.7,29.5,80,54,28,29.35,29.17,8,2,10,0.00
2012-10-21,86.0,70.4,56.5,69.9,62.0,49.0,99,77,56,29.26,29.15,11,4,14,0.00
2012-10-22,74.5,63.1,52.9,70.0,60.7,52.6,99,92,83,29.36,29.18,13,3,13,0.00
2012-10-23,86.0,69.8,50.4,70.1,60.7,48.3,99,78,40,29.32,29.16,16,7,18,0.00
2012-10-24,82.0,71.6,62.6,71.3,65.2,56.7,99,82,60,29.28,29.17,19,8,21,0.01
2012-10-25,62.4,45.8,33.8,59.9,39.1,27.7,97,79,55,29.87,29.16,11,6,17,0.05
2012-10-26,45.7,36.9,26.2,30.5,26.2,20.3,79,66,50,30.06,29.87,7,3,9,0.00
2012-10-27,50.0,36.9,24.4,33.8,26.4,19.5,89,68,47,29.93,29.73,8,1,12,0.00
2012-10-28,58.3,43.7,24.8,37.1,28.9,20.4,87,60,39,29.82,29.68,11,4,11,0.00
2012-10-29,68.9,53.9,42.1,36.6,30.6,24.5,52,43,32,29.72,29.54,21,9,21,0.00
2012-10-30,69.1,55.3,39.6,43.1,36.5,30.8,71,51,39,29.55,29.44,9,3,10,0.00
2012-10-31,69.4,49.2,32.2,45.3,35.8,28.0,88,64,39,29.61,29.49,8,2,8,0.00
2012-11-1,78.4,56.7,38.3,51.4,40.3,32.1,83,59,34,29.55,29.42,8,2,10,0.00
2012-11-2,77.5,59.9,47.8,50.9,43.6,34.7,72,57,39,29.56,29.31,11,4,12,0.00
2012-11-3,60.6,45.7,35.2,41.3,34.7,29.9,84,67,50,29.75,29.56,6,2,8,0.00
2012-11-4,70.5,52.1,32.7,46.1,35.8,29.0,91,61,31,29.72,29.51,17,5,20,0.00
2012-11-5,55.0,46.2,36.0,39.6,36.0,29.8,83,69,56,29.69,29.58,10,3,10,0.00
2012-11-6,65.1,47.5,34.0,41.7,30.5,19.7,87,59,26,29.67,29.56,11,4,11,0.00
2012-11-7,62.6,45.0,27.9,35.0,26.8,19.7,76,53,34,29.73,29.52,8,2,8,0.00
2012-11-8,74.5,58.6,47.3,48.9,38.0,28.2,76,49,39,29.52,29.31,17,8,20,0.00
2012-11-9,79.3,61.4,38.1,60.3,50.4,34.5,92,70,49,29.31,29.16,19,9,25,0.00
2012-11-10,77.0,68.7,49.6,61.2,57.9,46.8,94,70,59,29.23,29.06,29,18,41,0.31
2012-11-11,48.0,33.5,24.1,45.2,24.0,17.2,91,69,46,29.79,29.23,11,4,12,0.00
2012-11-12,51.1,33.8,21.6,30.5,21.2,16.1,80,63,36,29.93,29.79,9,1,12,0.00
2012-11-13,57.6,41.2,25.3,36.3,27.4,20.1,84,61,37,29.90,29.77,14,6,14,0.00
2012-11-14,57.9,41.3,27.0,35.6,27.9,20.7,82,62,41,29.85,29.71,11,3,13,0.00
2012-11-15,57.6,42.6,29.5,38.4,31.9,23.5,83,68,46,29.91,29.69,5,1,6,0.00
2012-11-16,62.8,42.8,24.4,45.7,31.7,21.2,92,68,41,29.95,29.80,9,4,11,0.00
2012-11-17,63.1,50.7,41.9,37.3,32.8,28.6,65,53,39,29.81,29.67,23,11,24,0.00
2012-11-18,64.6,54.7,46.0,41.0,34.5,28.2,57,48,42,29.69,29.51,21,14,24,0.00
2012-11-19,70.2,52.8,37.9,52.4,40.5,31.3,90,66,41,29.67,29.54,14,4,17,0.00
2012-11-20,64.9,46.1,29.8,44.1,35.1,26.2,92,69,41,29.77,29.67,5,1,6,0.00
2012-11-21,73.9,59.4,43.2,52.0,44.8,36.4,80,61,41,29.69,29.40,21,12,24,0.00
2012-11-22,73.0,60.2,39.2,55.9,45.1,27.1,71,59,41,29.85,29.31,18,8,22,0.00
2012-11-23,40.8,33.8,21.4,26.9,16.7,11.7,68,51,37,30.09,29.86,11,3,11,0.00
2012-11-24,57.9,40.5,20.8,27.9,21.0,12.3,71,50,34,29.91,29.37,24,8,24,0.00
2012-11-25,57.4,42.6,27.7,35.2,26.8,17.5,72,55,42,29.56,29.36,12,2,14,0.00
2012-11-26,45.9,32.8,21.6,28.5,23.5,14.8,84,70,48,29.98,29.56,10,3,11,0.00
2012-11-27,46.4,28.8,12.7,28.8,18.5,7.6,84,67,47,29.99,29.73,17,3,17,0.00
2012-11-28,56.1,37.0,17.6,37.9,25.5,12.6,84,66,43,29.86,29.61,0,0,0,0.00
2012-11-29,62.4,44.7,31.8,45.6,34.5,26.4,86,69,50,29.61,29.45,0,0,0,0.00
2012-11-30,60.3,41.5,24.4,43.7,33.5,20.6,92,75,51,29.61,29.42,0,0,0,0.00
2012-12-1,64.6,54.4,37.6,58.0,50.7,35.7,99,88,70,29.45,29.31,0,0,0,0.00
2012-12-2,67.6,49.8,32.4,53.0,42.2,31.4,99,78,50,29.55,29.24,17,0,23,0.00
2012-12-3,66.9,58.4,45.0,57.6,46.5,32.5,88,67,41,29.63,29.13,17,2,21,0.00
2012-12-4,64.9,41.5,24.3,39.2,24.9,18.6,83,56,29,29.83,29.64,0,0,0,0.00
2012-12-5,62.1,46.2,29.3,31.3,23.2,18.5,67,45,24,29.81,29.44,0,0,0,0.00
2012-12-6,52.9,47.9,37.4,45.6,36.0,25.0,82,65,43,29.48,29.37,0,0,0,0.00
2012-12-7,45.3,37.1,26.2,37.1,30.2,20.7,86,76,66,29.50,29.38,0,0,0,0.00
2012-12-8,48.2,35.9,20.5,40.6,30.8,17.0,92,82,67,29.50,29.33,0,0,0,0.00
2012-12-9,43.0,32.4,19.4,41.5,20.7,5.3,95,64,43,29.72,29.37,0,0,0,0.00
2012-12-10,35.2,21.3,5.7,12.1,2.5,-3.7,67,46,29,29.73,29.47,0,0,0,0.00
2012-12-11,48.2,27.8,12.7,24.2,10.4,-0.9,63,49,37,29.63,29.50,0,0,0,0.00
2012-12-12,53.2,38.9,23.4,20.1,15.3,10.6,59,42,26,29.61,29.50,16,0,21,0.00
2012-12-13,57.4,44.4,34.7,27.1,21.7,15.9,53,43,32,29.59,29.50,0,0,0,0.00
2012-12-14,59.5,48.0,39.6,46.1,35.1,24.2,93,62,51,29.53,28.97,19,3,19,0.02
2012-12-15,58.8,48.1,34.2,46.7,41.8,30.3,92,80,61,29.26,28.94,0,0,1,0.00
2012-12-16,43.7,33.3,26.4,35.2,28.9,23.5,96,84,66,29.35,29.21,0,0,0,0.00
2012-12-17,53.2,38.0,23.0,38.6,28.2,20.5,94,71,41,29.35,29.13,0,0,8,0.00
2012-12-18,58.3,40.1,28.4,33.6,23.9,13.9,80,57,29,29.36,29.12,0,0,0,0.00
2012-12-19,46.4,41.5,29.7,36.5,31.8,25.6,94,70,53,29.35,28.99,6,0,13,0.04
2012-12-20,33.1,26.4,17.8,29.1,19.8,11.0,95,77,61,29.79,29.21,0,0,0,0.00
2012-12-21,40.6,25.8,12.6,27.2,18.1,7.1,81,73,56,29.83,29.67,0,0,0,0.04
2012-12-22,49.1,30.2,14.2,31.8,21.6,9.5,86,72,49,29.66,29.44,0,0,1,0.00
2012-12-23,28.8,23.6,16.7,22.8,17.7,12.5,84,78,72,29.55,29.45,3,0,5,0.00
2012-12-24,26.4,19.9,15.1,14.3,11.6,8.7,80,70,59,29.64,29.53,5,0,5,0.00
2012-12-25,19.0,16.6,10.6,11.9,6.8,2.6,74,65,54,29.84,29.62,0,0,11,0.00
2012-12-26,25.0,14.5,5.0,10.7,5.3,-1.0,75,67,52,29.83,29.57,0,0,0,0.00
2012-12-27,36.7,26.3,16.2,23.0,17.8,8.2,78,70,58,29.59,29.38,0,0,0,0.00
2012-12-28,28.0,22.3,10.4,20.7,13.0,3.0,80,68,54,29.68,29.48,0,0,0,0.00
2012-12-29,43.9,21.9,5.2,25.2,10.7,-1.1,79,64,41,29.83,29.68,6,0,8,0.00
2012-12-30,49.1,35.2,17.6,24.4,18.7,9.4,72,54,35,29.79,29.57,0,0,25,0.00
2012-12-31,36.1,28.1,21.9,25.3,21.0,18.2,86,76,51,29.70,29.52,0,0,0,0.00
2013-1-1,24.1,18.2,8.4,18.8,12.8,1.7,86,79,69,29.83,29.69,0,0,0,0.00